Skagway, AK

10:43 PM AKDT on May 24, 2015 (GMT -0800)
Skagway | | Change Station
CLOSE
Current Station
Airport
Location: Skagway,
Elevation: 16 ft
Nearby Weather Stations

Elev 16 ft 59.46 °N, 135.32 °W | Updated 50 minutes ago

Overcast
Overcast
52 °F
Feels Like 52 °F
N
14
Wind Variable Wind from SW

Today
High -- | Low -- °F
--% Chance of Precip.
Yesterday
High -- | Low -- °F
Precip. -- in
4:08 AM 9:48 PM
Waxing Crescent, 46% visible
Pressure 30.07 in
Visibility 10.0 miles
Clouds Overcast 5500 ft
Dew Point 47 °F
Humidity 83%
Rainfall 0.00 in
Snow Depth Not available.
UV 0 out of 12
Pollen Not available.
Air Quality Not available.
Flu Activity Local Activity
METAR PAGY 250553Z AUTO 22012KT 10SM OVC055 11/08 A3007 RMK AO2 SLP183 T01110083 10167 20111 53005 TSNO

More Conditions Fewer Conditions

Pressure 30.07 in
Visibility 10.0 miles
Clouds Overcast 5500 ft
Dew Point 47 °F
Humidity 83%
Rainfall 0.00 in
Snow Depth Not available.
UV 0 out of 12
Pollen Not available.
Air Quality Not available.
Flu Activity Local Activity
METAR PAGY 250553Z AUTO 22012KT 10SM OVC055 11/08 A3007 RMK AO2 SLP183 T01110083 10167 20111 53005 TSNO

More Conditions Fewer Conditions

10-Day Weather Forecast

Almanac

Astronomy

May. 24, 2015 Rise Set
Actual Time
Civil Twilight
Nautical Twilight
Astronomical Twilight
Moon
Length of Visible Light
Length of Day
Tomorrow will be .
, % of the Moon is Illuminated

Today's Extremes

State Highs State Lows

Community

WunderPhotos

Upload Photos

1,823,957 photos uploaded!

WunderBlogs® & News

Nearby

Air Quality

  Air Quality AQ Index Pollutant
Not available.

Snow Depth

Station Depth Elevation

Earthquake Activity

City Distance Mag. Time & Date
Minimum magnitude displayed is 2.5.

Coastal Water Temperatures

Place Temperature

Stations

Nearby Weather Stations

Station Location Temp. Windchill Dew Point Humidity Wind Precip. Elev Updated Type